Flight Track Log - Related Links

Times and Time Zones

All times are in EDT time to prevent confusion due to time zone crossing. See the GGN7281 flight status page for this flight to view local times or setup timezone preferences in your user account.

Time Position Orientation Groundspeed Altitude Reporting Facility
EDT Latitude Longitude Course Direction KTS MPH feet Rate Location/Type
Sat 05:58:35 PM 43.1214 -77.6564 70° East 125 144 1,500  Level Cleveland Center
Sat 05:59:11 PM 43.1289 -77.6275 70° East 143 165 2,800 2,047 Climbing Cleveland Center
Sat 06:00:00 PM 43.1525 -77.6492 326° Northwest 160 184 4,400 1,714 Climbing Cleveland Center
Sat 06:00:21 PM 43.1550 -77.6633 284° West 175 201 4,800 1,333 Climbing Cleveland Center
Sat 06:01:21 PM 43.1650 -77.7339 281° West 185 213 6,200 2,000 Climbing Cleveland Center
Sat 06:02:21 PM 43.1731 -77.8047 279° West 191 220 8,800 2,150 Climbing Cleveland Center
Sat 06:03:21 PM 43.1786 -77.8700 277° West 184 212 10,500 1,450 Climbing Cleveland Center
Sat 06:04:21 PM 43.1803 -77.9439 272° West 184 212 11,700 750 Climbing Cleveland Center
Sat 06:05:21 PM 43.1844 -78.0292 274° West 201 231 12,000 150 Climbing Cleveland Center
Sat 06:06:21 PM 43.1906 -78.1200 275° West 232 267 12,000  Level Cleveland Center
Sat 06:07:21 PM 43.1967 -78.2167 275° West 244 281 12,000  Level Cleveland Center
Sat 06:08:21 PM 43.2028 -78.3075 275° West 249 287 12,000  Level Cleveland Center
Sat 06:09:21 PM 43.2086 -78.4014 275° West 249 287 12,000  Level Cleveland Center
Sat 06:10:21 PM 43.2125 -78.4953 273° West 249 287 12,000  Level Cleveland Center
Sat 06:11:21 PM 43.2203 -78.5892 277° West 249 287 12,000  Level Cleveland Center
Sat 06:12:21 PM 43.2325 -78.6828 280° West 254 292 12,000  Level Cleveland Center
Sat 06:13:21 PM 43.2442 -78.7736 280° West 254 292 12,000  Level Cleveland Center
Sat 06:14:21 PM 43.2539 -78.8644 278° West 254 292 12,000 -50 Level Cleveland Center
Sat 06:15:22 PM 43.2500 -78.9500 266° West 250 288 11,900 -496 Descending Toronto Center
Sat 06:16:22 PM 43.2667 -79.0333 285° West 250 288 11,000 -900 Descending Toronto Center

Login

Don't have an account? Register now (free) for customized features, flight alerts, and more!